createdAt,value
2022-11-24T00:00:29.587Z,16.00
2022-11-24T00:05:52.548Z,11.40
2022-11-24T00:10:55.479Z,11.40
2022-11-24T00:16:26.237Z,6.90
2022-11-24T00:21:30.903Z,16.90
2022-11-24T00:26:37.607Z,12.50
2022-11-24T00:31:42.569Z,13.80
2022-11-24T00:36:45.542Z,12.10
2022-11-24T00:41:48.521Z,13.80
2022-11-24T00:46:51.631Z,14.50
2022-11-24T00:51:54.899Z,11.60
2022-11-24T00:56:57.832Z,12.50
2022-11-24T01:02:00.889Z,11.00
2022-11-24T01:12:07.034Z,12.40
2022-11-24T01:17:10.042Z,13.40
2022-11-24T01:22:13.826Z,12.90
2022-11-24T01:27:16.811Z,12.40
2022-11-24T01:32:19.812Z,13.40
2022-11-24T01:37:22.770Z,16.40
2022-11-24T01:42:25.883Z,11.50
2022-11-24T01:47:40.974Z,9.60
2022-11-24T01:52:49.959Z,10.90
2022-11-24T01:58:25.556Z,10.60
2022-11-24T02:03:34.619Z,16.10
2022-11-24T02:08:49.606Z,9.40
2022-11-24T02:13:54.491Z,11.10
2022-11-24T02:18:57.805Z,12.80
2022-11-24T02:24:08.924Z,11.70
2022-11-24T02:29:13.334Z,16.60
2022-11-24T02:34:16.310Z,15.00
2022-11-24T02:39:19.471Z,12.40
2022-11-24T02:44:25.761Z,16.00
2022-11-24T02:49:28.739Z,13.60
2022-11-24T02:54:32.390Z,12.00
2022-11-24T02:59:35.853Z,9.70
2022-11-24T03:04:38.776Z,14.30
2022-11-24T03:09:41.800Z,20.10
2022-11-24T03:14:44.883Z,14.60
2022-11-24T03:19:47.903Z,18.20
2022-11-24T03:24:50.938Z,11.50
2022-11-24T03:29:53.995Z,10.20
2022-11-24T03:34:56.981Z,17.00
2022-11-24T03:40:00.010Z,18.50
2022-11-24T03:45:29.802Z,15.30
2022-11-24T03:50:26.483Z,15.90
2022-11-24T03:55:29.493Z,14.60
2022-11-24T04:00:32.622Z,16.70
2022-11-24T04:05:36.650Z,15.90
2022-11-24T04:10:40.387Z,17.20
2022-11-24T04:15:44.234Z,18.70
2022-11-24T04:20:52.395Z,15.30
2022-11-24T04:25:55.369Z,19.00
2022-11-24T04:31:06.200Z,14.10
2022-11-24T04:36:09.344Z,13.70
2022-11-24T04:41:12.373Z,8.80
2022-11-24T04:46:15.330Z,13.10
2022-11-24T04:51:18.467Z,14.70
2022-11-24T04:56:21.432Z,10.60
2022-11-24T05:01:24.486Z,10.60
2022-11-24T05:06:27.496Z,10.40
2022-11-24T05:11:30.556Z,14.10
2022-11-24T05:16:33.573Z,11.10
2022-11-24T05:26:39.999Z,11.50
2022-11-24T05:31:42.920Z,9.60
2022-11-24T05:36:56.441Z,13.60
2022-11-24T05:41:59.478Z,10.70
2022-11-24T05:47:02.435Z,11.00
2022-11-24T05:52:05.416Z,10.00
2022-11-24T05:57:08.260Z,10.10
2022-11-24T06:02:11.404Z,10.90
2022-11-24T06:12:17.509Z,15.40
2022-11-24T06:17:20.386Z,11.50
2022-11-24T06:22:23.229Z,11.30
2022-11-24T06:27:26.403Z,13.20
2022-11-24T06:37:32.319Z,12.40
2022-11-24T06:42:36.541Z,14.50
2022-11-24T06:47:39.487Z,10.30
2022-11-24T06:52:42.452Z,11.60
2022-11-24T06:57:45.305Z,10.70
2022-11-24T07:02:48.219Z,13.60
2022-11-24T07:07:51.365Z,11.40
2022-11-24T07:12:54.275Z,11.70
2022-11-24T07:17:57.171Z,10.00
2022-11-24T07:23:00.044Z,10.20
2022-11-24T07:28:03.219Z,12.80
2022-11-24T07:33:06.087Z,12.70
2022-11-24T07:38:08.955Z,15.90
2022-11-24T07:43:18.603Z,17.30
2022-11-24T07:48:24.947Z,10.10
2022-11-24T07:53:28.951Z,13.80
2022-11-24T07:58:36.171Z,14.10
2022-11-24T08:03:39.599Z,13.50
2022-11-24T08:08:42.665Z,11.50
2022-11-24T08:13:45.757Z,15.20
2022-11-24T08:18:56.245Z,12.60
2022-11-24T08:23:59.305Z,12.80
2022-11-24T08:29:02.364Z,13.50
2022-11-24T08:34:06.459Z,13.20
2022-11-24T08:39:12.161Z,13.60
2022-11-24T08:44:18.354Z,13.10
2022-11-24T08:49:22.337Z,14.30
2022-11-24T08:54:25.961Z,16.00
2022-11-24T08:59:29.814Z,14.80
2022-11-24T09:04:34.535Z,14.10
2022-11-24T09:09:39.859Z,14.90
2022-11-24T09:14:44.872Z,13.40
2022-11-24T09:25:09.847Z,16.00
2022-11-24T09:30:14.069Z,14.40
2022-11-24T09:35:17.175Z,14.40
2022-11-24T09:40:22.364Z,12.70
2022-11-24T09:46:04.877Z,14.10
2022-11-24T09:51:13.851Z,13.30
2022-11-24T09:56:22.695Z,17.20
2022-11-24T10:01:52.870Z,15.90
2022-11-24T10:07:22.604Z,14.00
2022-11-24T10:12:44.240Z,14.40
2022-11-24T10:18:17.270Z,15.10
2022-11-24T10:24:02.729Z,10.80
2022-11-24T10:29:32.795Z,15.00
2022-11-24T10:34:43.051Z,12.30
2022-11-24T10:40:01.084Z,18.30
2022-11-24T10:45:14.136Z,19.60
2022-11-24T10:50:31.606Z,20.80
2022-11-24T10:55:54.995Z,15.30
2022-11-24T11:01:01.731Z,14.80
2022-11-24T11:06:30.809Z,15.00
2022-11-24T11:11:35.835Z,20.60
2022-11-24T11:16:38.850Z,29.10
2022-11-24T11:21:42.055Z,19.90
2022-11-24T11:26:45.302Z,21.50
2022-11-24T11:37:31.114Z,16.90
2022-11-24T11:48:15.263Z,18.10
2022-11-24T11:53:37.098Z,14.10
2022-11-24T11:59:06.368Z,15.50
2022-11-24T12:04:40.514Z,17.10
2022-11-24T12:10:04.562Z,15.60
2022-11-24T12:15:26.402Z,14.30
2022-11-24T12:20:38.094Z,17.80
2022-11-24T12:25:59.348Z,13.10
2022-11-24T12:31:14.378Z,14.80
2022-11-24T12:36:36.834Z,18.60
2022-11-24T12:42:21.004Z,17.20
2022-11-24T12:47:43.832Z,16.20
2022-11-24T12:53:13.910Z,16.80
2022-11-24T12:58:46.135Z,14.90
2022-11-24T13:04:11.211Z,16.70
2022-11-24T13:09:14.649Z,19.00
2022-11-24T13:14:32.840Z,17.60
2022-11-24T13:19:37.455Z,19.30
2022-11-24T13:24:42.308Z,13.30
2022-11-24T13:29:50.722Z,23.70
2022-11-24T13:34:55.124Z,21.50
2022-11-24T13:39:59.297Z,18.30
2022-11-24T13:45:23.632Z,15.80
2022-11-24T13:50:49.560Z,15.00
2022-11-24T13:56:00.786Z,16.30
2022-11-24T14:01:03.621Z,17.10
2022-11-24T14:06:06.647Z,20.10
2022-11-24T14:11:17.325Z,15.80
2022-11-24T14:16:22.463Z,20.90
2022-11-24T14:21:25.393Z,15.30
2022-11-24T14:26:35.526Z,18.70
2022-11-24T14:31:38.501Z,18.20
2022-11-24T14:36:42.602Z,18.70
2022-11-24T14:42:03.975Z,16.80
2022-11-24T14:47:31.185Z,22.80
2022-11-24T14:52:35.519Z,22.00
2022-11-24T14:57:40.419Z,21.10
2022-11-24T15:02:53.503Z,17.30
2022-11-24T15:08:02.849Z,16.70
2022-11-24T15:13:16.400Z,20.40
2022-11-24T15:19:03.385Z,16.90
2022-11-24T15:24:18.302Z,22.50
2022-11-24T15:29:21.165Z,22.30
2022-11-24T15:34:23.968Z,17.90
2022-11-24T15:39:26.815Z,19.40
2022-11-24T15:44:30.859Z,19.40
2022-11-24T15:49:33.808Z,26.40
2022-11-24T15:54:37.321Z,30.10
2022-11-24T15:59:40.221Z,28.50
2022-11-24T16:04:43.123Z,14.80
2022-11-24T16:09:46.031Z,17.40
2022-11-24T16:14:48.958Z,23.80
2022-11-24T16:20:00.263Z,20.50
2022-11-24T16:25:07.803Z,20.20
2022-11-24T16:30:12.637Z,22.30
2022-11-24T16:35:16.157Z,16.20
2022-11-24T16:40:19.112Z,30.60
2022-11-24T16:45:22.218Z,25.40
2022-11-24T16:55:28.024Z,20.40
2022-11-24T17:00:31.132Z,20.40
2022-11-24T17:05:33.982Z,22.90
2022-11-24T17:10:40.015Z,26.60
2022-11-24T17:15:48.440Z,26.40
2022-11-24T17:20:57.856Z,32.20
2022-11-24T17:26:27.949Z,26.20
2022-11-24T17:31:35.802Z,34.90
2022-11-24T17:36:44.902Z,32.00
2022-11-24T17:41:47.806Z,25.40
2022-11-24T17:46:51.118Z,31.10
2022-11-24T17:51:53.972Z,17.50
2022-11-24T17:56:56.822Z,21.50
2022-11-24T18:01:59.853Z,23.10
2022-11-24T18:07:03.040Z,17.00
2022-11-24T18:12:06.406Z,28.30
2022-11-24T18:17:10.343Z,19.70
2022-11-24T18:22:13.259Z,25.40
2022-11-24T18:32:20.006Z,46.90
2022-11-24T18:37:23.015Z,35.40
2022-11-24T18:42:28.370Z,62.80
2022-11-24T18:47:31.480Z,47.60
2022-11-24T18:52:34.381Z,38.90
2022-11-24T18:57:37.197Z,30.70
2022-11-24T19:02:40.127Z,46.90
2022-11-24T19:07:43.196Z,31.10
2022-11-24T19:12:46.162Z,29.70
2022-11-24T19:17:49.101Z,26.80
2022-11-24T19:22:52.005Z,50.60
2022-11-24T19:27:54.936Z,48.70
2022-11-24T19:32:57.900Z,41.20
2022-11-24T19:38:00.766Z,44.00
2022-11-24T19:43:03.821Z,27.10
2022-11-24T19:48:06.932Z,37.30
2022-11-24T19:53:09.830Z,24.60
2022-11-24T19:58:12.740Z,36.90
2022-11-24T20:03:15.738Z,28.10
2022-11-24T20:13:21.647Z,22.70
2022-11-24T20:18:25.571Z,33.10
2022-11-24T20:23:28.576Z,23.40
2022-11-24T20:28:32.092Z,25.90
2022-11-24T20:33:35.993Z,21.90
2022-11-24T20:38:39.986Z,32.00
2022-11-24T20:43:44.381Z,32.00
2022-11-24T20:48:47.901Z,26.40
2022-11-24T20:53:53.368Z,36.10
2022-11-24T20:58:56.787Z,28.80
2022-11-24T21:03:59.887Z,19.90
2022-11-24T21:09:04.191Z,22.80
2022-11-24T21:14:08.248Z,44.60
2022-11-24T21:19:18.843Z,89.40
2022-11-24T21:24:21.859Z,32.90
2022-11-24T21:29:25.776Z,23.70
2022-11-24T21:34:29.080Z,20.90
2022-11-24T21:39:32.132Z,23.40
2022-11-24T21:49:38.710Z,19.60
2022-11-24T21:54:41.611Z,14.50
2022-11-24T21:59:44.515Z,13.50
2022-11-24T22:04:47.417Z,11.40
2022-11-24T22:09:50.525Z,20.40
2022-11-24T22:14:53.431Z,12.80
2022-11-24T22:19:56.329Z,25.00
2022-11-24T22:24:59.172Z,14.90
2022-11-24T22:30:02.858Z,14.30
2022-11-24T22:35:06.737Z,14.20
2022-11-24T22:40:09.790Z,18.90
2022-11-24T22:45:12.688Z,18.00
2022-11-24T22:50:15.599Z,23.60
2022-11-24T22:55:18.511Z,16.70
2022-11-24T23:00:21.399Z,14.90
2022-11-24T23:05:24.400Z,19.10
2022-11-24T23:10:27.509Z,15.40
2022-11-24T23:15:30.820Z,31.00
2022-11-24T23:25:37.650Z,22.80
2022-11-24T23:30:40.450Z,20.40
2022-11-24T23:35:43.352Z,24.20
2022-11-24T23:40:46.562Z,18.80
2022-11-24T23:50:52.399Z,16.70
2022-11-24T23:55:55.536Z,35.10
